Time;durP1;ratioP1;P1;durP2;ratioP2;P2;SDS_P1;SDS_P2;PMS_P1;PMS_P2;Temp;Humidity;BMP_temperature;BMP_pressure;BME280_temperature;BME280_humidity;BME280_pressure;Samples;Min_cycle;Max_cycle;Signal;HPM_P1;HPM_P2
2023/12/17 00:01:26;;;;;;;19.17;13.33;;;0.60;99.90;;;;;;5061342;28;20259;-33
2023/12/17 00:03:53;;;;;;;22.03;13.50;;;0.60;99.90;;;;;;5062659;28;20176;-33
2023/12/17 00:06:19;;;;;;;22.53;15.00;;;0.50;99.90;;;;;;5048548;28;20180;-31
2023/12/17 00:08:45;;;;;;;19.83;13.43;;;0.40;99.90;;;;;;5065086;28;20208;-34
2023/12/17 00:11:11;;;;;;;24.40;15.60;;;0.40;99.90;;;;;;5060891;28;20185;-37
2023/12/17 00:13:37;;;;;;;26.10;16.93;;;0.40;99.90;;;;;;5045825;28;20254;-35
2023/12/17 00:16:04;;;;;;;20.87;14.50;;;0.40;99.90;;;;;;5045302;28;20181;-33
2023/12/17 00:18:30;;;;;;;22.23;15.90;;;0.30;99.90;;;;;;5044264;28;20248;-34
2023/12/17 00:20:56;;;;;;;16.37;11.30;;;0.30;99.90;;;;;;5041535;28;20211;-35
2023/12/17 00:23:21;;;;;;;19.57;13.17;;;0.30;99.90;;;;;;5057043;28;20212;-36
2023/12/17 00:25:47;;;;;;;21.70;12.20;;;0.30;99.90;;;;;;5047030;28;20188;-38
2023/12/17 00:28:13;;;;;;;17.43;11.70;;;0.40;99.90;;;;;;5043137;28;20414;-36
2023/12/17 00:30:39;;;;;;;15.63;10.23;;;0.40;99.90;;;;;;5074669;28;20212;-31
2023/12/17 00:33:05;;;;;;;15.33;10.83;;;0.40;99.90;;;;;;5071873;28;20192;-34
2023/12/17 00:35:31;;;;;;;14.27;10.33;;;0.40;99.90;;;;;;5038205;28;20192;-36
2023/12/17 00:37:56;;;;;;;16.17;11.50;;;0.40;99.90;;;;;;5032287;28;20218;-33
2023/12/17 00:40:22;;;;;;;16.20;10.40;;;0.40;99.90;;;;;;5053846;28;20199;-37
2023/12/17 00:42:48;;;;;;;13.67;10.00;;;0.40;99.90;;;;;;5052324;28;20202;-34
2023/12/17 00:45:14;;;;;;;18.07;10.73;;;0.40;99.90;;;;;;5051365;28;20204;-32
2023/12/17 00:47:40;;;;;;;13.77;9.90;;;0.40;99.90;;;;;;5052535;28;20193;-34
2023/12/17 00:50:06;;;;;;;18.47;11.13;;;0.30;99.90;;;;;;5042910;28;20329;-36
2023/12/17 00:52:33;;;;;;;15.53;10.40;;;0.40;99.90;;;;;;5036307;28;20202;-33
2023/12/17 00:54:59;;;;;;;14.03;10.00;;;0.40;99.90;;;;;;5038291;28;20184;-32
2023/12/17 00:57:25;;;;;;;18.37;11.17;;;0.40;99.90;;;;;;5028836;28;20233;-32
2023/12/17 00:59:51;;;;;;;21.17;13.53;;;0.30;99.90;;;;;;5034347;28;20226;-34
2023/12/17 01:02:17;;;;;;;21.17;12.90;;;0.40;99.90;;;;;;5043304;28;20176;-31
2023/12/17 01:04:43;;;;;;;20.37;12.07;;;0.30;99.90;;;;;;5057482;28;20231;-34
2023/12/17 01:07:09;;;;;;;17.87;11.27;;;0.20;99.90;;;;;;5035353;28;20193;-34
2023/12/17 01:09:34;;;;;;;18.60;11.50;;;0.20;99.90;;;;;;5053381;28;20184;-35
2023/12/17 01:12:03;;;;;;;16.20;11.47;;;0.20;99.90;;;;;;5070094;28;20184;-37
2023/12/17 01:14:33;;;;;;;19.33;11.97;;;0.10;99.90;;;;;;5052289;28;20191;-35
2023/12/17 01:16:59;;;;;;;15.30;11.90;;;0.10;99.90;;;;;;5050645;28;20276;-41
2023/12/17 01:19:24;;;;;;;17.77;11.37;;;0.00;99.90;;;;;;5040166;28;20320;-39
2023/12/17 01:21:50;;;;;;;19.07;11.77;;;0.00;99.90;;;;;;5054378;28;20177;-40
2023/12/17 01:24:16;;;;;;;16.37;11.37;;;0.10;99.90;;;;;;5056213;28;20201;-37
2023/12/17 01:26:43;;;;;;;16.37;10.73;;;0.10;99.90;;;;;;5040492;28;20187;-40
2023/12/17 01:29:08;;;;;;;19.10;11.43;;;0.10;99.90;;;;;;5040563;28;20204;-39
2023/12/17 01:31:34;;;;;;;16.23;11.37;;;0.10;99.90;;;;;;5037638;28;20280;-40
2023/12/17 01:34:00;;;;;;;14.90;10.60;;;0.10;99.90;;;;;;5042309;28;20211;-39
2023/12/17 01:36:26;;;;;;;15.77;10.20;;;0.10;99.90;;;;;;5038507;28;20208;-39
2023/12/17 01:38:51;;;;;;;20.53;11.07;;;0.10;99.90;;;;;;5048669;28;20295;-39
2023/12/17 01:41:17;;;;;;;14.93;9.63;;;0.20;99.90;;;;;;5046039;28;20182;-38
2023/12/17 01:43:43;;;;;;;14.57;10.00;;;0.20;99.90;;;;;;5068958;28;20189;-39
2023/12/17 01:46:09;;;;;;;16.97;9.40;;;0.20;99.90;;;;;;5043681;28;20185;-38
2023/12/17 01:48:35;;;;;;;11.93;8.73;;;0.20;99.90;;;;;;5056987;28;20232;-40
2023/12/17 01:51:02;;;;;;;11.77;7.67;;;0.20;99.90;;;;;;5057310;28;20177;-40
2023/12/17 01:53:28;;;;;;;13.03;8.30;;;0.20;99.90;;;;;;5046528;28;20210;-36
2023/12/17 01:55:54;;;;;;;11.63;7.77;;;0.20;99.90;;;;;;5061761;28;20195;-38
2023/12/17 01:58:21;;;;;;;11.93;7.90;;;0.20;99.90;;;;;;5055155;28;20216;-39
2023/12/17 02:00:48;;;;;;;11.93;7.80;;;0.20;99.90;;;;;;5050045;28;20182;-40
2023/12/17 02:03:14;;;;;;;11.27;8.63;;;0.10;99.90;;;;;;5054639;28;20202;-40
2023/12/17 02:05:43;;;;;;;10.60;7.53;;;0.10;99.90;;;;;;5030624;28;20180;-40
2023/12/17 02:08:09;;;;;;;14.73;10.13;;;0.00;99.90;;;;;;5048795;28;20204;-40
2023/12/17 02:10:35;;;;;;;15.37;9.40;;;0.00;99.90;;;;;;5060078;28;20185;-37
2023/12/17 02:13:01;;;;;;;13.23;8.63;;;0.00;99.90;;;;;;5036434;28;20210;-39
2023/12/17 02:15:27;;;;;;;16.77;9.63;;;0.00;99.90;;;;;;5033139;28;20185;-38
2023/12/17 02:17:53;;;;;;;15.30;10.47;;;0.00;99.90;;;;;;5053287;28;20197;-39
2023/12/17 02:20:19;;;;;;;12.77;9.10;;;0.00;99.90;;;;;;5070130;28;20254;-39
2023/12/17 02:22:50;;;;;;;14.87;9.53;;;-0.10;99.90;;;;;;5058411;28;20247;-39
2023/12/17 02:25:15;;;;;;;13.90;9.67;;;-0.10;99.90;;;;;;5067229;28;20173;-39
2023/12/17 02:27:43;;;;;;;15.00;9.80;;;-0.10;99.90;;;;;;5037952;28;20251;-40
2023/12/17 02:30:09;;;;;;;14.77;9.33;;;-0.10;99.90;;;;;;5054490;28;20180;-39
2023/12/17 02:32:35;;;;;;;14.50;10.17;;;-0.10;99.90;;;;;;5054257;28;20185;-38
2023/12/17 02:35:01;;;;;;;12.97;8.97;;;-0.10;99.90;;;;;;5059710;28;20184;-40
2023/12/17 02:37:27;;;;;;;13.37;9.07;;;-0.10;99.90;;;;;;5054568;28;20224;-40
2023/12/17 02:39:53;;;;;;;14.53;9.63;;;-0.10;99.90;;;;;;5057028;28;20298;-39
2023/12/17 02:42:19;;;;;;;15.30;10.27;;;-0.10;99.90;;;;;;5044581;28;20188;-40
2023/12/17 02:44:45;;;;;;;13.03;8.90;;;-0.10;99.90;;;;;;5050229;28;20177;-40
2023/12/17 02:47:11;;;;;;;12.60;8.27;;;-0.20;99.90;;;;;;5055009;28;20228;-38
2023/12/17 02:49:36;;;;;;;10.87;8.83;;;-0.20;99.90;;;;;;5046238;28;20188;-39
2023/12/17 02:52:03;;;;;;;12.13;7.70;;;-0.20;99.90;;;;;;5041540;28;20227;-36
2023/12/17 02:54:29;;;;;;;12.33;8.60;;;-0.10;99.90;;;;;;5041564;28;20181;-36
2023/12/17 02:56:55;;;;;;;12.30;8.03;;;-0.10;99.90;;;;;;5038784;28;20188;-40
2023/12/17 02:59:21;;;;;;;12.23;7.87;;;-0.20;99.90;;;;;;5058251;28;20211;-36
2023/12/17 03:01:47;;;;;;;12.03;8.03;;;-0.10;99.90;;;;;;5054127;28;20271;-38
2023/12/17 03:04:13;;;;;;;12.40;8.30;;;-0.20;99.90;;;;;;5062093;28;20259;-38
2023/12/17 03:06:40;;;;;;;11.23;8.50;;;-0.20;99.90;;;;;;5054228;28;20165;-37
2023/12/17 03:09:06;;;;;;;10.03;7.97;;;-0.20;99.90;;;;;;5052823;28;20228;-39
2023/12/17 03:11:32;;;;;;;11.17;7.53;;;-0.20;99.90;;;;;;5033823;28;20186;-37
2023/12/17 03:13:58;;;;;;;10.43;7.97;;;-0.20;99.90;;;;;;5052097;28;20209;-40
2023/12/17 03:16:26;;;;;;;9.73;7.23;;;-0.30;99.90;;;;;;5043954;28;20208;-36
2023/12/17 03:18:52;;;;;;;12.93;8.30;;;-0.30;99.90;;;;;;5038210;28;20261;-35
2023/12/17 03:21:19;;;;;;;14.97;9.43;;;-0.30;99.90;;;;;;5041658;28;20183;-40
2023/12/17 03:23:45;;;;;;;15.03;9.47;;;-0.30;99.90;;;;;;5078140;28;20192;-37
2023/12/17 03:26:11;;;;;;;14.03;9.67;;;-0.30;99.90;;;;;;5054581;28;20180;-38
2023/12/17 03:28:37;;;;;;;13.23;9.13;;;-0.30;99.90;;;;;;5036473;28;20207;-39
2023/12/17 03:31:03;;;;;;;12.37;8.97;;;-0.30;99.90;;;;;;5052887;28;20652;-38
2023/12/17 03:33:29;;;;;;;12.10;9.10;;;-0.30;99.90;;;;;;5047452;28;20195;-40
2023/12/17 03:35:55;;;;;;;11.63;8.70;;;-0.30;99.90;;;;;;5077934;28;20179;-37
2023/12/17 03:38:21;;;;;;;11.70;8.30;;;-0.30;99.90;;;;;;5049194;28;20215;-34
2023/12/17 03:40:47;;;;;;;14.43;8.60;;;-0.30;99.90;;;;;;5043996;28;20169;-39
2023/12/17 03:43:13;;;;;;;10.93;7.77;;;-0.30;99.90;;;;;;5057286;28;20181;-38
2023/12/17 03:45:39;;;;;;;12.90;8.73;;;-0.30;99.90;;;;;;5032632;28;20184;-38
2023/12/17 03:48:07;;;;;;;11.73;8.53;;;-0.30;99.90;;;;;;5061919;28;20205;-39
2023/12/17 03:50:32;;;;;;;14.57;9.53;;;-0.40;99.90;;;;;;5048227;28;20177;-36
2023/12/17 03:52:58;;;;;;;11.53;8.40;;;-0.50;99.90;;;;;;5047142;28;20177;-38
2023/12/17 03:55:24;;;;;;;14.63;8.93;;;-0.50;99.90;;;;;;5045604;28;20187;-37
2023/12/17 03:57:50;;;;;;;13.40;8.10;;;-0.50;99.90;;;;;;5062502;28;20195;-39
2023/12/17 04:00:16;;;;;;;13.10;8.97;;;-0.50;99.90;;;;;;5035383;28;20204;-38
2023/12/17 04:02:42;;;;;;;10.37;8.20;;;-0.50;99.90;;;;;;5039825;28;20184;-39
2023/12/17 04:05:08;;;;;;;15.60;9.17;;;-0.50;99.90;;;;;;5063266;28;20675;-35
2023/12/17 04:07:34;;;;;;;12.57;8.17;;;-0.50;99.90;;;;;;5052333;28;20232;-38
2023/12/17 04:10:01;;;;;;;11.97;8.30;;;-0.50;99.90;;;;;;5054001;28;20188;-39
2023/12/17 04:12:28;;;;;;;13.03;9.00;;;-0.60;99.90;;;;;;5058554;28;20190;-36
2023/12/17 04:14:53;;;;;;;12.33;8.60;;;-0.60;99.90;;;;;;5047124;28;20191;-37
2023/12/17 04:17:19;;;;;;;13.33;8.63;;;-0.70;99.90;;;;;;5046601;28;20214;-38
2023/12/17 04:19:45;;;;;;;12.90;8.47;;;-0.80;99.90;;;;;;5060377;28;20202;-40
2023/12/17 04:22:11;;;;;;;13.47;8.50;;;-0.80;99.90;;;;;;5055886;28;20180;-33
2023/12/17 04:24:38;;;;;;;11.90;8.00;;;-0.80;99.90;;;;;;5046073;28;20190;-40
2023/12/17 04:27:04;;;;;;;10.63;8.30;;;-0.80;99.90;;;;;;5056102;28;20188;-37
2023/12/17 04:29:30;;;;;;;11.57;7.60;;;-0.80;99.90;;;;;;5040368;28;20192;-36
2023/12/17 04:31:56;;;;;;;10.10;7.83;;;-0.80;99.90;;;;;;5044553;28;20182;-36
2023/12/17 04:34:21;;;;;;;10.60;7.60;;;-0.80;99.90;;;;;;5074635;28;20191;-36
2023/12/17 04:36:47;;;;;;;10.47;7.40;;;-0.80;99.90;;;;;;5048954;28;20171;-37
2023/12/17 04:39:13;;;;;;;9.20;7.13;;;-0.70;99.90;;;;;;5059854;28;20213;-38
2023/12/17 04:41:39;;;;;;;8.47;6.60;;;-0.70;99.90;;;;;;5080577;28;20240;-40
2023/12/17 04:44:07;;;;;;;9.43;7.20;;;-0.80;99.90;;;;;;5043946;28;21555;-39
2023/12/17 04:46:34;;;;;;;8.17;6.73;;;-0.80;99.90;;;;;;5044555;28;20186;-38
2023/12/17 04:49:00;;;;;;;9.23;6.60;;;-0.80;99.90;;;;;;5062500;28;20227;-40
2023/12/17 04:51:26;;;;;;;9.13;6.47;;;-0.80;99.90;;;;;;5049324;28;20251;-39
2023/12/17 04:53:52;;;;;;;8.60;6.60;;;-0.80;99.90;;;;;;5077527;28;20180;-38
2023/12/17 04:56:20;;;;;;;7.33;6.53;;;-0.80;99.90;;;;;;5051891;28;20192;-40
2023/12/17 04:58:46;;;;;;;8.77;6.03;;;-0.80;99.90;;;;;;5047317;28;20261;-40
2023/12/17 05:01:12;;;;;;;8.80;6.30;;;-0.90;99.90;;;;;;5061014;28;20209;-37
2023/12/17 05:03:38;;;;;;;7.83;6.00;;;-0.90;99.90;;;;;;5052013;28;20190;-38
2023/12/17 05:06:05;;;;;;;8.20;6.30;;;-0.90;99.90;;;;;;5051376;28;20180;-38
2023/12/17 05:08:31;;;;;;;7.00;5.43;;;-0.90;99.90;;;;;;5062269;28;20211;-39
2023/12/17 05:10:57;;;;;;;8.53;6.13;;;-0.90;99.90;;;;;;5063933;28;20248;-39
2023/12/17 05:13:22;;;;;;;7.77;6.07;;;-0.90;99.90;;;;;;5051477;28;20182;-40
2023/12/17 05:15:49;;;;;;;8.20;6.63;;;-0.80;99.90;;;;;;5076178;28;20194;-40
2023/12/17 05:18:15;;;;;;;10.77;6.90;;;-0.80;99.90;;;;;;5076126;28;20208;-39
2023/12/17 05:20:41;;;;;;;20.97;15.43;;;-0.80;99.90;;;;;;5065893;28;20181;-39
2023/12/17 05:23:08;;;;;;;16.33;12.20;;;-0.80;99.90;;;;;;5056529;28;20180;-38
2023/12/17 05:25:34;;;;;;;10.43;7.90;;;-0.80;99.90;;;;;;5042935;28;20179;-39
2023/12/17 05:28:00;;;;;;;9.87;7.43;;;-0.70;99.90;;;;;;5046793;28;20327;-33
2023/12/17 05:30:26;;;;;;;8.30;6.83;;;-0.80;99.90;;;;;;5049034;28;20247;-32
2023/12/17 05:32:52;;;;;;;8.37;6.37;;;-0.70;99.90;;;;;;5046827;28;20183;-38
2023/12/17 05:35:18;;;;;;;10.97;8.13;;;-0.70;99.90;;;;;;5074585;28;20290;-38
2023/12/17 05:37:44;;;;;;;11.57;6.90;;;-0.70;99.90;;;;;;5046784;28;20311;-36
2023/12/17 05:40:10;;;;;;;9.33;6.40;;;-0.70;99.90;;;;;;5047709;28;20229;-34
2023/12/17 05:42:36;;;;;;;6.90;5.80;;;-0.80;99.90;;;;;;5062740;28;20183;-37
2023/12/17 05:45:03;;;;;;;7.90;6.33;;;-0.90;99.90;;;;;;5062666;28;20210;-39
2023/12/17 05:47:30;;;;;;;8.00;6.70;;;-0.90;99.90;;;;;;5051060;28;20207;-42
2023/12/17 05:49:56;;;;;;;9.90;6.70;;;-0.90;99.90;;;;;;5048653;28;20214;-38
2023/12/17 05:52:22;;;;;;;16.20;11.20;;;-0.90;99.90;;;;;;5045911;28;20191;-39
2023/12/17 05:54:48;;;;;;;9.23;7.07;;;-1.00;99.90;;;;;;5067428;28;20192;-40
2023/12/17 05:57:13;;;;;;;11.20;7.57;;;-1.00;99.90;;;;;;5048252;28;20200;-42
2023/12/17 05:59:40;;;;;;;9.43;7.63;;;-1.00;99.90;;;;;;5052232;28;20218;-41
2023/12/17 06:02:06;;;;;;;12.23;8.90;;;-1.00;99.90;;;;;;5051465;28;20179;-40
2023/12/17 06:04:33;;;;;;;17.63;12.23;;;-1.00;99.90;;;;;;5056133;28;20172;-41
2023/12/17 06:06:59;;;;;;;13.13;10.20;;;-0.90;99.90;;;;;;5038575;28;20188;-37
2023/12/17 06:09:25;;;;;;;11.20;8.23;;;-0.90;99.90;;;;;;5070066;28;20189;-41
2023/12/17 06:11:51;;;;;;;9.43;7.40;;;-0.90;99.90;;;;;;5054186;28;20278;-39
2023/12/17 06:14:17;;;;;;;12.20;9.07;;;-0.90;99.90;;;;;;5044031;28;20180;-39
2023/12/17 06:16:46;;;;;;;12.43;9.70;;;-0.90;99.90;;;;;;5056017;28;20194;-42
2023/12/17 06:19:13;;;;;;;9.77;7.90;;;-0.90;99.90;;;;;;5053031;28;20207;-39
2023/12/17 06:21:41;;;;;;;10.67;7.20;;;-0.90;99.90;;;;;;5037448;28;20191;-42
2023/12/17 06:24:07;;;;;;;9.67;7.50;;;-0.80;99.90;;;;;;5051573;28;20184;-42
2023/12/17 06:26:35;;;;;;;10.00;7.10;;;-0.80;99.90;;;;;;5057521;28;20188;-42
2023/12/17 06:29:02;;;;;;;12.40;8.60;;;-0.80;99.90;;;;;;5038982;28;20199;-41
2023/12/17 06:31:28;;;;;;;11.70;8.43;;;-0.80;99.90;;;;;;5052839;28;20188;-41
2023/12/17 06:33:54;;;;;;;12.13;8.87;;;-0.80;99.90;;;;;;5037880;28;20179;-42
2023/12/17 06:36:20;;;;;;;10.10;7.73;;;-0.80;99.90;;;;;;5053967;28;20184;-42
2023/12/17 06:38:47;;;;;;;9.97;7.23;;;-0.80;99.90;;;;;;5039252;28;20700;-42
2023/12/17 06:41:13;;;;;;;9.67;6.93;;;-0.80;99.90;;;;;;5059810;28;20259;-36
2023/12/17 06:43:42;;;;;;;9.57;7.07;;;-0.80;99.90;;;;;;5040497;28;20196;-36
2023/12/17 06:46:14;;;;;;;13.40;7.30;;;-0.90;99.90;;;;;;5053127;28;20189;-36
2023/12/17 06:48:41;;;;;;;8.73;6.93;;;-0.90;99.90;;;;;;5045248;28;20198;-36
2023/12/17 06:51:07;;;;;;;11.63;7.57;;;-0.90;99.90;;;;;;5038363;28;20211;-37
2023/12/17 06:53:33;;;;;;;11.23;7.50;;;-0.90;99.90;;;;;;5047771;28;20190;-39
2023/12/17 06:55:59;;;;;;;9.93;7.57;;;-0.90;99.90;;;;;;5058700;28;20182;-38
2023/12/17 06:58:24;;;;;;;9.80;7.10;;;-0.90;99.90;;;;;;5037018;28;20204;-39
2023/12/17 07:00:50;;;;;;;10.97;7.90;;;-0.80;99.90;;;;;;5052280;28;20260;-38
2023/12/17 07:03:19;;;;;;;10.33;7.27;;;-0.80;99.90;;;;;;5054488;28;20200;-35
2023/12/17 07:05:45;;;;;;;12.30;8.37;;;-0.80;99.90;;;;;;5056919;28;20222;-40
2023/12/17 07:08:11;;;;;;;9.57;6.67;;;-0.70;99.90;;;;;;5053856;28;20361;-38
2023/12/17 07:10:37;;;;;;;9.23;6.53;;;-0.70;99.90;;;;;;5050278;28;20256;-36
2023/12/17 07:13:04;;;;;;;9.43;7.50;;;-0.70;99.90;;;;;;5059495;28;20176;-39
2023/12/17 07:15:30;;;;;;;8.83;7.20;;;-0.70;99.90;;;;;;5057310;28;20199;-36
2023/12/17 07:17:56;;;;;;;11.00;8.90;;;-0.70;99.90;;;;;;5043776;28;20199;-34
2023/12/17 07:20:22;;;;;;;11.47;8.37;;;-0.70;99.90;;;;;;5044307;28;20212;-36
2023/12/17 07:22:48;;;;;;;10.83;8.33;;;-0.70;99.90;;;;;;5060688;28;20189;-32
2023/12/17 07:25:17;;;;;;;9.17;7.00;;;-0.70;99.90;;;;;;5068588;28;20183;-33
2023/12/17 07:27:43;;;;;;;8.57;6.50;;;-0.70;99.90;;;;;;5053928;28;20326;-39
2023/12/17 07:30:09;;;;;;;12.27;8.97;;;-0.80;99.90;;;;;;5046217;28;20267;-34
2023/12/17 07:32:35;;;;;;;11.20;8.07;;;-0.80;99.90;;;;;;5061880;28;20188;-32
2023/12/17 07:35:03;;;;;;;9.47;7.43;;;-0.80;99.90;;;;;;5051968;28;20190;-32
2023/12/17 07:37:29;;;;;;;8.80;7.37;;;-0.70;99.90;;;;;;5037950;28;20196;-32
2023/12/17 07:39:59;;;;;;;11.70;7.50;;;-0.70;99.90;;;;;;5043204;28;20227;-35
2023/12/17 07:42:25;;;;;;;10.37;7.90;;;-0.70;99.90;;;;;;5060804;28;20187;-34
2023/12/17 07:44:51;;;;;;;10.87;8.07;;;-0.70;99.90;;;;;;5039065;28;20237;-34
2023/12/17 07:47:19;;;;;;;10.67;8.20;;;-0.60;99.90;;;;;;5054886;28;20288;-35
2023/12/17 07:49:44;;;;;;;13.37;8.93;;;-0.60;99.90;;;;;;5052896;28;20531;-32
2023/12/17 07:52:11;;;;;;;13.87;9.27;;;-0.60;99.90;;;;;;5040053;28;20270;-32
2023/12/17 07:54:37;;;;;;;10.53;7.73;;;-0.60;99.90;;;;;;5064970;28;20185;-34
2023/12/17 07:57:03;;;;;;;14.03;9.30;;;-0.60;99.90;;;;;;5043982;28;20184;-32
2023/12/17 07:59:29;;;;;;;14.07;9.43;;;-0.50;99.90;;;;;;5047780;28;20208;-34
2023/12/17 08:01:55;;;;;;;13.57;8.93;;;-0.50;99.90;;;;;;5044275;28;20279;-35
2023/12/17 08:04:21;;;;;;;12.30;10.20;;;-0.50;99.90;;;;;;5058442;28;20181;-33
2023/12/17 08:06:48;;;;;;;16.03;10.73;;;-0.50;99.90;;;;;;5060894;28;20177;-34
2023/12/17 08:09:16;;;;;;;14.77;10.00;;;-0.40;99.90;;;;;;5052228;28;20188;-34
2023/12/17 08:11:43;;;;;;;13.97;10.13;;;-0.40;99.90;;;;;;5055454;28;20221;-36
2023/12/17 08:14:09;;;;;;;16.57;10.43;;;-0.30;99.90;;;;;;5032778;28;20202;-33
2023/12/17 08:16:37;;;;;;;19.17;13.43;;;-0.30;99.90;;;;;;5056586;28;20180;-37
2023/12/17 08:19:05;;;;;;;16.57;11.67;;;-0.20;99.90;;;;;;5052374;28;20272;-33
2023/12/17 08:21:31;;;;;;;16.17;11.63;;;-0.20;99.90;;;;;;5050924;28;20321;-34
2023/12/17 08:23:57;;;;;;;18.20;10.53;;;-0.10;99.90;;;;;;5060008;28;20181;-31
2023/12/17 08:26:25;;;;;;;13.00;10.10;;;0.00;99.90;;;;;;5046794;28;20202;-35
2023/12/17 08:28:54;;;;;;;16.80;11.00;;;0.00;99.90;;;;;;5065867;28;20282;-35
2023/12/17 08:31:20;;;;;;;15.33;10.97;;;0.10;99.90;;;;;;5034769;28;20187;-32
2023/12/17 08:33:51;;;;;;;20.10;14.57;;;0.20;99.90;;;;;;5051682;28;20189;-34
2023/12/17 08:36:17;;;;;;;20.00;13.47;;;0.20;99.90;;;;;;5035197;28;20197;-36
2023/12/17 08:38:45;;;;;;;18.50;13.53;;;0.30;99.90;;;;;;5065934;28;20212;-35
2023/12/17 08:41:15;;;;;;;18.57;14.37;;;0.40;99.90;;;;;;5034845;28;20209;-35
2023/12/17 08:43:42;;;;;;;16.07;11.60;;;0.40;99.90;;;;;;5053439;28;20184;-35
2023/12/17 08:46:08;;;;;;;15.60;10.60;;;0.50;99.90;;;;;;5036692;28;20189;-33
2023/12/17 08:48:35;;;;;;;13.83;9.77;;;0.50;99.90;;;;;;5030972;28;20197;-34
2023/12/17 08:51:04;;;;;;;15.77;11.77;;;0.60;99.90;;;;;;5037400;28;20457;-34
2023/12/17 08:53:31;;;;;;;15.63;10.93;;;0.70;99.90;;;;;;5055514;28;20328;-40
2023/12/17 08:55:58;;;;;;;14.93;11.03;;;0.70;99.90;;;;;;5075841;28;20289;-38
2023/12/17 08:58:24;;;;;;;14.67;11.27;;;0.80;99.90;;;;;;5031261;28;20200;-39
2023/12/17 09:00:50;;;;;;;29.17;16.70;;;0.90;99.90;;;;;;5036859;28;20217;-39
2023/12/17 09:03:18;;;;;;;24.93;14.90;;;1.00;99.90;;;;;;5046907;28;20216;-39
2023/12/17 09:05:47;;;;;;;18.33;11.40;;;1.10;99.90;;;;;;5034762;28;20204;-40
2023/12/17 09:08:14;;;;;;;13.10;10.03;;;1.20;99.90;;;;;;5034199;28;20227;-38
2023/12/17 09:10:40;;;;;;;11.90;8.97;;;1.30;99.90;;;;;;5048196;28;20189;-39
2023/12/17 09:13:09;;;;;;;11.37;8.90;;;1.40;99.90;;;;;;5031434;28;20251;-40
2023/12/17 09:15:36;;;;;;;17.80;10.63;;;1.50;99.90;;;;;;5048955;28;20230;-40
2023/12/17 09:18:04;;;;;;;11.73;9.30;;;1.50;99.90;;;;;;5050368;28;20200;-39
2023/12/17 09:20:30;;;;;;;11.50;8.80;;;1.60;99.90;;;;;;5054061;28;20209;-40
2023/12/17 09:22:56;;;;;;;11.73;9.47;;;1.70;99.90;;;;;;5047517;28;20209;-40
2023/12/17 09:25:23;;;;;;;10.50;8.43;;;1.80;99.90;;;;;;5051353;28;20174;-38
2023/12/17 09:27:54;;;;;;;10.33;7.73;;;1.90;99.90;;;;;;5039223;28;20284;-38
2023/12/17 09:30:37;;;;;;;11.50;7.40;;;2.00;99.90;;;;;;5048682;28;20184;-38
2023/12/17 09:33:03;;;;;;;9.87;7.97;;;2.10;99.90;;;;;;5052918;28;20177;-40
2023/12/17 09:35:31;;;;;;;11.37;7.37;;;2.20;99.90;;;;;;5063768;28;20182;-40
2023/12/17 09:38:01;;;;;;;11.23;8.37;;;2.30;99.90;;;;;;5059223;28;20244;-39
2023/12/17 09:40:32;;;;;;;10.30;7.37;;;2.40;99.90;;;;;;5041770;28;20216;-39
2023/12/17 09:43:00;;;;;;;10.67;8.70;;;2.40;99.90;;;;;;5054089;28;20173;-38
2023/12/17 09:45:26;;;;;;;10.20;7.67;;;2.40;99.90;;;;;;5052574;28;20177;-40
2023/12/17 09:47:52;;;;;;;9.80;7.80;;;2.50;99.90;;;;;;5038343;28;20201;-38
2023/12/17 09:50:18;;;;;;;10.83;7.43;;;2.60;99.90;;;;;;5048675;28;20189;-38
2023/12/17 09:52:44;;;;;;;10.87;7.20;;;2.60;99.90;;;;;;5036020;28;20196;-38
2023/12/17 09:55:11;;;;;;;13.83;7.10;;;2.70;99.90;;;;;;5034432;28;20182;-36
2023/12/17 09:57:38;;;;;;;9.93;7.70;;;2.80;99.90;;;;;;5052512;28;20216;-40
2023/12/17 10:00:12;;;;;;;9.70;7.20;;;2.80;99.90;;;;;;5053595;28;20201;-36
2023/12/17 10:02:39;;;;;;;9.87;7.17;;;2.90;99.90;;;;;;5051593;28;20182;-40
2023/12/17 10:05:06;;;;;;;8.80;6.73;;;2.90;99.90;;;;;;5054702;28;20188;-39
2023/12/17 10:07:33;;;;;;;12.03;7.53;;;3.00;99.90;;;;;;5052341;28;20270;-39
2023/12/17 10:10:00;;;;;;;11.10;8.30;;;3.10;99.90;;;;;;5059933;28;20183;-38
2023/12/17 10:12:27;;;;;;;9.30;7.40;;;3.10;99.90;;;;;;5063524;28;20193;-40
2023/12/17 10:14:53;;;;;;;11.70;7.70;;;3.20;99.90;;;;;;5057003;28;20173;-38
2023/12/17 10:17:19;;;;;;;11.30;7.80;;;3.20;99.90;;;;;;5060517;28;20239;-38
2023/12/17 10:19:54;;;;;;;9.33;7.43;;;3.20;99.90;;;;;;5055654;28;20204;-40
2023/12/17 10:22:31;;;;;;;9.70;7.07;;;3.30;99.90;;;;;;5062921;28;20212;-38
2023/12/17 10:24:57;;;;;;;9.53;7.17;;;3.40;99.90;;;;;;5061149;28;20185;-38
2023/12/17 10:27:24;;;;;;;9.80;7.23;;;3.40;99.90;;;;;;5058366;28;20224;-37
2023/12/17 10:29:52;;;;;;;8.60;6.87;;;3.50;99.90;;;;;;5057254;28;20264;-40
2023/12/17 10:32:24;;;;;;;11.57;7.00;;;3.60;99.90;;;;;;5059741;28;20184;-39
2023/12/17 10:34:52;;;;;;;9.40;6.97;;;3.60;99.90;;;;;;5058022;28;20219;-38
2023/12/17 10:37:19;;;;;;;8.43;6.77;;;3.70;99.90;;;;;;5058157;28;20212;-39
2023/12/17 10:39:54;;;;;;;8.60;7.03;;;3.70;99.90;;;;;;5038072;28;20216;-39
2023/12/17 10:42:21;;;;;;;9.00;7.10;;;3.70;99.90;;;;;;5044832;28;20180;-41
2023/12/17 10:44:50;;;;;;;8.33;6.97;;;3.70;99.90;;;;;;5056999;28;20653;-34
2023/12/17 10:47:23;;;;;;;14.27;8.63;;;3.80;99.90;;;;;;5057931;28;20197;-40
2023/12/17 10:49:52;;;;;;;12.83;8.27;;;3.80;99.90;;;;;;5059449;28;20177;-31
2023/12/17 10:52:22;;;;;;;10.43;7.60;;;3.80;99.90;;;;;;5058816;28;20248;-32
2023/12/17 10:54:48;;;;;;;8.50;7.00;;;3.70;99.90;;;;;;5059040;28;20201;-36
2023/12/17 10:57:22;;;;;;;10.47;7.90;;;3.70;99.90;;;;;;5040872;28;20256;-39
2023/12/17 10:59:53;;;;;;;10.00;7.10;;;3.80;99.90;;;;;;5058841;28;20193;-35
2023/12/17 11:02:23;;;;;;;9.27;7.53;;;3.90;99.90;;;;;;5042891;28;20272;-39
2023/12/17 11:04:51;;;;;;;9.37;6.67;;;3.90;99.90;;;;;;5045126;28;20182;-39
2023/12/17 11:07:21;;;;;;;9.37;6.57;;;4.00;99.90;;;;;;5060072;28;20224;-34
2023/12/17 11:09:47;;;;;;;9.90;6.90;;;4.10;99.90;;;;;;5057349;28;20194;-38
2023/12/17 11:12:16;;;;;;;8.53;7.23;;;4.20;99.90;;;;;;5053622;28;20238;-30
2023/12/17 11:14:44;;;;;;;9.43;6.63;;;4.30;99.90;;;;;;5039327;28;20181;-38
2023/12/17 11:17:14;;;;;;;7.93;6.33;;;4.40;99.90;;;;;;5051649;28;20231;-37
2023/12/17 11:20:09;;;;;;;10.67;7.00;;;4.50;99.90;;;;;;5081285;28;20216;-38
2023/12/17 11:22:36;;;;;;;10.47;6.40;;;4.50;99.90;;;;;;5014529;28;20185;-39
2023/12/17 11:25:04;;;;;;;7.17;6.27;;;4.50;99.90;;;;;;5034569;28;20185;-36
2023/12/17 11:27:31;;;;;;;8.33;6.20;;;4.60;99.90;;;;;;5040124;28;20205;-37
2023/12/17 11:29:57;;;;;;;7.70;6.10;;;4.70;99.90;;;;;;5032011;28;20204;-39
2023/12/17 11:32:27;;;;;;;8.17;6.07;;;4.80;99.90;;;;;;5051973;28;20181;-39
2023/12/17 11:34:55;;;;;;;7.40;6.20;;;4.80;99.90;;;;;;5052827;28;20195;-40
2023/12/17 11:37:23;;;;;;;7.27;6.00;;;4.90;99.90;;;;;;5053773;28;20205;-41
2023/12/17 11:39:50;;;;;;;8.03;6.30;;;5.00;99.90;;;;;;5070564;28;20212;-39
2023/12/17 11:42:18;;;;;;;8.90;6.53;;;5.10;99.90;;;;;;5052389;28;20190;-38
2023/12/17 11:44:49;;;;;;;7.73;6.47;;;5.20;99.90;;;;;;5049367;28;20223;-41
2023/12/17 11:47:16;;;;;;;8.67;6.63;;;5.40;99.90;;;;;;5040279;28;20567;-38
2023/12/17 11:49:42;;;;;;;8.93;6.80;;;5.50;99.90;;;;;;5055541;28;20182;-39
2023/12/17 11:52:18;;;;;;;9.23;6.83;;;5.60;99.90;;;;;;5056678;28;20207;-41
2023/12/17 11:54:44;;;;;;;7.30;6.20;;;5.80;99.90;;;;;;5066031;28;20275;-38
2023/12/17 11:57:19;;;;;;;9.63;6.63;;;5.80;99.90;;;;;;5041131;28;20207;-41
2023/12/17 11:59:45;;;;;;;8.80;6.93;;;5.80;99.90;;;;;;5055889;28;20250;-38
2023/12/17 12:02:17;;;;;;;7.10;5.53;;;5.80;99.90;;;;;;5061980;28;20363;-37
2023/12/17 12:04:44;;;;;;;7.33;6.10;;;5.80;99.90;;;;;;5036421;28;20267;-41
2023/12/17 12:07:11;;;;;;;6.90;5.10;;;5.90;99.90;;;;;;5051707;28;20193;-40
2023/12/17 12:09:38;;;;;;;6.97;5.53;;;5.90;99.90;;;;;;5078851;28;20267;-40
2023/12/17 12:12:21;;;;;;;6.97;5.43;;;6.00;99.90;;;;;;5050486;28;20220;-41
2023/12/17 12:14:49;;;;;;;8.13;5.13;;;6.10;99.90;;;;;;5044058;28;20177;-42
2023/12/17 12:17:40;;;;;;;7.70;5.77;;;6.20;99.90;;;;;;5058527;28;20211;-38
2023/12/17 12:20:12;;;;;;;13.80;9.47;;;6.20;99.90;;;;;;5037650;28;20205;-41
2023/12/17 12:22:41;;;;;;;7.53;5.70;;;6.30;99.90;;;;;;5062691;28;20181;-39
2023/12/17 12:25:08;;;;;;;6.93;5.57;;;6.40;99.90;;;;;;5038832;28;20182;-36
2023/12/17 12:27:34;;;;;;;6.43;5.10;;;6.40;99.90;;;;;;5051673;28;20197;-39
2023/12/17 12:30:00;;;;;;;6.00;4.70;;;6.40;99.90;;;;;;5051337;28;20205;-41
2023/12/17 12:32:27;;;;;;;5.90;5.30;;;6.50;99.90;;;;;;5046316;28;20216;-42
2023/12/17 12:34:55;;;;;;;7.03;5.77;;;6.60;99.90;;;;;;5044603;28;20182;-42
2023/12/17 12:37:34;;;;;;;7.13;5.80;;;6.80;99.90;;;;;;5036025;28;20319;-38
2023/12/17 12:40:01;;;;;;;7.67;5.83;;;6.80;99.90;;;;;;5041549;28;20235;-42
2023/12/17 12:42:28;;;;;;;8.80;5.97;;;6.90;99.90;;;;;;5045229;28;20692;-41